Time;durP1;ratioP1;P1;durP2;ratioP2;P2;SDS_P1;SDS_P2;PMS_P1;PMS_P2;Temp;Humidity;BMP_temperature;BMP_pressure;BME280_temperature;BME280_humidity;BME280_pressure;Samples;Min_cycle;Max_cycle;Signal;HPM_P1;HPM_P2
2023/12/15 00:01:02;;;;;;;1.90;0.80;;;6.00;99.90;;;;;;5135420;27;20426;-56
2023/12/15 00:03:29;;;;;;;1.70;0.70;;;6.00;99.90;;;;;;5135763;27;20422;-58
2023/12/15 00:05:57;;;;;;;1.80;0.60;;;5.80;99.90;;;;;;5137197;27;20773;-58
2023/12/15 00:08:24;;;;;;;1.50;0.60;;;5.90;99.90;;;;;;5136183;27;20442;-58
2023/12/15 00:10:51;;;;;;;2.10;0.80;;;6.00;99.90;;;;;;5136595;27;20438;-59
2023/12/15 00:13:18;;;;;;;2.20;0.70;;;6.30;99.90;;;;;;5136003;27;20447;-58
2023/12/15 00:15:45;;;;;;;2.38;0.60;;;6.20;99.90;;;;;;5136485;27;20438;-58
2023/12/15 00:18:12;;;;;;;2.28;0.70;;;6.20;99.90;;;;;;5135895;27;20750;-58
2023/12/15 00:20:39;;;;;;;1.63;0.60;;;6.10;99.90;;;;;;5135858;27;20418;-58
2023/12/15 00:23:08;;;;;;;1.40;0.68;;;6.00;99.90;;;;;;5136083;27;20418;-58
2023/12/15 00:25:35;;;;;;;1.50;0.70;;;6.00;99.90;;;;;;5136079;27;20856;-59
2023/12/15 00:28:03;;;;;;;1.58;0.70;;;6.20;99.90;;;;;;5135665;27;20730;-57
2023/12/15 00:30:30;;;;;;;1.10;0.55;;;6.20;99.90;;;;;;5135297;27;20416;-57
2023/12/15 00:32:57;;;;;;;1.20;0.65;;;6.10;99.90;;;;;;5134852;27;20418;-57
2023/12/15 00:35:24;;;;;;;1.80;0.60;;;6.10;99.90;;;;;;5134726;27;20430;-57
2023/12/15 00:37:51;;;;;;;1.20;0.60;;;6.00;99.90;;;;;;5134872;27;20418;-57
2023/12/15 00:40:22;;;;;;;3.00;0.80;;;6.00;99.90;;;;;;5135085;27;20426;-58
2023/12/15 00:42:49;;;;;;;1.10;0.60;;;5.90;99.90;;;;;;5135339;27;20863;-58
2023/12/15 00:45:16;;;;;;;1.10;0.60;;;6.00;99.90;;;;;;5135095;27;20422;-58
2023/12/15 00:47:43;;;;;;;1.13;0.60;;;6.10;99.90;;;;;;5135770;27;20419;-56
2023/12/15 00:50:11;;;;;;;1.00;0.60;;;6.10;99.90;;;;;;5135607;27;20410;-58
2023/12/15 00:52:38;;;;;;;1.30;0.70;;;6.10;99.90;;;;;;5135827;27;20414;-58
2023/12/15 00:55:06;;;;;;;1.10;0.60;;;6.10;99.90;;;;;;5134972;27;20430;-58
2023/12/15 00:57:35;;;;;;;1.10;0.50;;;6.00;99.90;;;;;;5135307;27;20423;-57
2023/12/15 01:00:02;;;;;;;1.20;0.60;;;6.00;99.90;;;;;;5135589;27;20849;-58
2023/12/15 01:02:29;;;;;;;1.40;0.60;;;5.80;99.90;;;;;;5134583;27;20446;-59
2023/12/15 01:04:56;;;;;;;1.20;0.50;;;5.80;99.90;;;;;;5134372;27;20407;-59
2023/12/15 01:07:24;;;;;;;1.30;0.60;;;5.70;99.90;;;;;;5134260;27;20800;-59
2023/12/15 01:09:51;;;;;;;0.90;0.47;;;5.80;99.90;;;;;;5134461;27;20512;-59
2023/12/15 01:12:18;;;;;;;1.08;0.50;;;5.80;99.90;;;;;;5129875;27;20482;-59
2023/12/15 01:14:47;;;;;;;1.30;0.50;;;5.70;99.90;;;;;;5134116;27;20864;-58
2023/12/15 01:17:14;;;;;;;1.30;0.60;;;5.80;99.90;;;;;;5134208;27;20406;-60
2023/12/15 01:19:41;;;;;;;1.90;0.68;;;6.00;99.90;;;;;;5134873;27;20414;-58
2023/12/15 01:22:08;;;;;;;1.10;0.60;;;6.30;99.90;;;;;;5134932;27;20426;-58
2023/12/15 01:24:36;;;;;;;1.75;0.70;;;6.30;99.90;;;;;;5134394;27;20423;-58
2023/12/15 01:27:03;;;;;;;2.00;0.80;;;6.40;99.90;;;;;;5134855;28;20456;-57
2023/12/15 01:29:30;;;;;;;2.20;0.80;;;6.40;99.90;;;;;;5134785;28;20728;-58
2023/12/15 01:31:58;;;;;;;1.67;0.70;;;6.30;99.90;;;;;;5134906;28;20433;-58
2023/12/15 01:34:25;;;;;;;2.07;0.80;;;6.30;99.90;;;;;;5134420;28;20433;-60
2023/12/15 01:36:52;;;;;;;2.10;0.80;;;6.30;99.90;;;;;;5135083;28;20496;-58
2023/12/15 01:39:19;;;;;;;2.00;0.80;;;6.40;99.90;;;;;;5134961;28;20418;-58
2023/12/15 01:41:46;;;;;;;2.40;0.80;;;6.40;99.90;;;;;;5133341;28;20422;-58
2023/12/15 01:44:14;;;;;;;1.63;0.88;;;6.20;99.90;;;;;;5131819;28;20410;-57
2023/12/15 01:46:41;;;;;;;2.25;1.00;;;6.00;99.90;;;;;;5135378;28;20421;-57
2023/12/15 01:49:09;;;;;;;3.47;1.00;;;6.10;99.90;;;;;;5134021;28;20426;-58
2023/12/15 01:51:38;;;;;;;1.75;0.77;;;6.00;99.90;;;;;;5134835;28;20418;-56
2023/12/15 01:54:05;;;;;;;1.30;0.80;;;6.20;99.90;;;;;;5135163;28;20430;-58
2023/12/15 01:56:32;;;;;;;1.83;0.80;;;6.00;99.90;;;;;;5134579;28;20423;-57
2023/12/15 01:58:59;;;;;;;1.30;0.70;;;5.90;99.90;;;;;;5133731;28;20729;-57
2023/12/15 02:01:26;;;;;;;2.07;1.00;;;5.60;99.90;;;;;;5133862;28;20711;-58
2023/12/15 02:03:53;;;;;;;1.80;0.83;;;5.50;99.90;;;;;;5133938;28;20523;-58
2023/12/15 02:06:22;;;;;;;1.48;0.80;;;5.60;99.90;;;;;;5134145;28;20476;-58
2023/12/15 02:08:49;;;;;;;1.73;0.80;;;5.80;99.90;;;;;;5134536;28;20418;-58
2023/12/15 02:11:16;;;;;;;1.40;0.80;;;5.80;99.90;;;;;;5133877;28;20417;-58
2023/12/15 02:13:43;;;;;;;2.60;0.70;;;5.60;99.90;;;;;;5134735;28;20695;-58
2023/12/15 02:16:11;;;;;;;1.40;0.70;;;5.40;99.90;;;;;;5134455;28;20881;-57
2023/12/15 02:18:38;;;;;;;2.07;0.80;;;5.20;99.90;;;;;;5135264;28;20845;-58
2023/12/15 02:21:05;;;;;;;1.92;0.90;;;5.10;99.90;;;;;;5134592;28;20512;-58
2023/12/15 02:23:34;;;;;;;2.08;0.80;;;5.00;99.90;;;;;;5134312;28;20422;-59
2023/12/15 02:26:01;;;;;;;2.30;0.70;;;5.00;99.90;;;;;;5136317;27;20831;-58
2023/12/15 02:28:28;;;;;;;1.58;0.80;;;5.10;99.90;;;;;;5138592;27;20422;-59
2023/12/15 02:30:55;;;;;;;2.30;0.75;;;5.30;99.90;;;;;;5138232;27;20429;-56
2023/12/15 02:33:22;;;;;;;2.30;0.90;;;5.40;99.90;;;;;;5138189;27;20426;-56
2023/12/15 02:35:50;;;;;;;1.42;0.80;;;5.30;99.90;;;;;;5138242;27;20749;-57
2023/12/15 02:38:18;;;;;;;1.52;0.70;;;5.40;99.90;;;;;;5137738;27;20471;-57
2023/12/15 02:40:47;;;;;;;2.17;0.90;;;5.30;99.90;;;;;;5137620;27;20410;-57
2023/12/15 02:43:14;;;;;;;1.90;0.80;;;5.20;99.90;;;;;;5138079;27;20418;-57
2023/12/15 02:45:41;;;;;;;1.80;0.88;;;5.30;99.90;;;;;;5138168;27;20414;-56
2023/12/15 02:48:08;;;;;;;1.50;0.73;;;5.40;99.90;;;;;;5137807;27;20480;-56
2023/12/15 02:50:35;;;;;;;1.50;0.80;;;5.60;99.90;;;;;;5128677;27;20410;-58
2023/12/15 02:53:02;;;;;;;1.63;0.80;;;5.80;99.90;;;;;;5137986;27;20744;-58
2023/12/15 02:55:29;;;;;;;1.42;0.70;;;5.80;99.90;;;;;;5137941;27;20850;-57
2023/12/15 02:57:58;;;;;;;1.50;0.90;;;5.70;99.90;;;;;;5138071;27;20476;-59
2023/12/15 03:00:25;;;;;;;1.30;0.70;;;5.90;99.90;;;;;;5137672;27;20422;-57
2023/12/15 03:02:52;;;;;;;1.48;0.70;;;6.00;99.90;;;;;;5137399;27;20791;-59
2023/12/15 03:05:19;;;;;;;1.38;0.60;;;5.90;99.90;;;;;;5136952;27;20411;-58
2023/12/15 03:07:46;;;;;;;1.40;0.70;;;6.10;99.90;;;;;;5137160;27;20411;-58
2023/12/15 03:10:13;;;;;;;1.35;0.70;;;6.00;99.90;;;;;;5136678;27;20422;-57
2023/12/15 03:12:40;;;;;;;1.45;0.80;;;5.80;99.90;;;;;;5131336;27;20422;-57
2023/12/15 03:15:09;;;;;;;1.58;0.70;;;5.70;99.90;;;;;;5137219;27;20906;-58
2023/12/15 03:17:36;;;;;;;1.75;0.90;;;5.60;99.90;;;;;;5137556;27;20852;-58
2023/12/15 03:20:06;;;;;;;1.92;0.68;;;5.60;99.90;;;;;;5137693;27;20408;-58
2023/12/15 03:22:33;;;;;;;1.30;0.70;;;5.60;99.90;;;;;;5137818;27;20434;-55
2023/12/15 03:25:00;;;;;;;1.95;0.80;;;5.70;99.90;;;;;;5137661;27;20492;-57
2023/12/15 03:27:27;;;;;;;1.60;0.63;;;5.70;99.90;;;;;;5137974;27;20429;-58
2023/12/15 03:29:54;;;;;;;1.30;0.70;;;5.90;99.90;;;;;;5136696;27;20418;-58
2023/12/15 03:32:23;;;;;;;1.30;0.60;;;5.90;99.90;;;;;;5136782;27;20417;-59
2023/12/15 03:34:50;;;;;;;2.25;0.70;;;6.00;99.90;;;;;;5137315;27;20437;-57
2023/12/15 03:37:17;;;;;;;1.30;0.63;;;6.00;99.90;;;;;;5136257;27;20418;-59
2023/12/15 03:39:45;;;;;;;1.10;0.60;;;6.10;99.90;;;;;;5136789;27;20454;-57
2023/12/15 03:42:12;;;;;;;1.10;0.60;;;6.10;99.90;;;;;;5136836;27;20426;-56
2023/12/15 03:44:40;;;;;;;1.55;0.70;;;6.00;99.90;;;;;;5137100;27;20410;-56
2023/12/15 03:47:07;;;;;;;1.63;0.73;;;6.20;99.90;;;;;;5135815;27;20445;-58
2023/12/15 03:49:36;;;;;;;2.60;0.70;;;6.20;99.90;;;;;;5135376;27;20456;-55
2023/12/15 03:52:03;;;;;;;1.50;0.70;;;6.20;99.90;;;;;;5135909;27;20429;-57
2023/12/15 03:54:31;;;;;;;1.50;0.70;;;6.10;99.90;;;;;;5135141;27;20422;-56
2023/12/15 03:56:58;;;;;;;1.20;0.60;;;6.20;99.90;;;;;;5135122;27;20437;-55
2023/12/15 03:59:25;;;;;;;2.40;0.70;;;6.20;96.20;;;;;;5135839;27;20418;-56
2023/12/15 04:01:52;;;;;;;1.30;0.60;;;5.90;99.00;;;;;;5136262;27;20418;-56
2023/12/15 04:04:20;;;;;;;1.10;0.70;;;6.00;99.90;;;;;;5136355;27;20821;-56
2023/12/15 04:06:48;;;;;;;1.13;0.70;;;6.10;99.90;;;;;;5136419;27;20422;-56
2023/12/15 04:09:15;;;;;;;1.30;0.70;;;6.30;99.90;;;;;;5136149;27;20510;-56
2023/12/15 04:11:42;;;;;;;1.40;0.70;;;6.30;99.90;;;;;;5135429;27;20755;-55
2023/12/15 04:14:10;;;;;;;1.40;0.65;;;6.40;99.90;;;;;;5132075;27;20422;-57
2023/12/15 04:16:37;;;;;;;1.30;0.60;;;6.50;99.90;;;;;;5127629;27;20430;-57
2023/12/15 04:19:04;;;;;;;1.10;0.63;;;6.40;90.70;;;;;;5136112;27;20425;-57
2023/12/15 04:21:31;;;;;;;1.17;0.70;;;6.20;98.10;;;;;;5136055;27;20422;-57
2023/12/15 04:23:59;;;;;;;1.10;0.70;;;6.10;99.90;;;;;;5135297;27;20407;-57
2023/12/15 04:26:26;;;;;;;1.38;0.65;;;6.10;99.90;;;;;;5136271;27;20418;-55
2023/12/15 04:28:54;;;;;;;1.58;0.70;;;6.10;99.90;;;;;;5136260;27;20418;-56
2023/12/15 04:31:21;;;;;;;1.17;0.70;;;5.80;99.90;;;;;;5136153;27;20419;-56
2023/12/15 04:33:48;;;;;;;1.60;0.60;;;5.70;99.90;;;;;;5136100;27;20426;-55
2023/12/15 04:36:19;;;;;;;1.25;0.70;;;5.60;99.90;;;;;;5136195;27;20849;-56
2023/12/15 04:38:46;;;;;;;1.80;0.60;;;5.70;99.90;;;;;;5135879;27;20453;-56
2023/12/15 04:41:19;;;;;;;1.30;0.70;;;5.60;99.90;;;;;;5136239;27;20442;-56
2023/12/15 04:43:46;;;;;;;1.27;0.70;;;5.50;99.90;;;;;;5131167;27;20426;-55
2023/12/15 04:46:22;;;;;;;1.30;0.80;;;5.40;99.90;;;;;;5136033;27;20418;-55
2023/12/15 04:48:49;;;;;;;2.10;0.70;;;5.40;99.90;;;;;;5135237;27;20422;-58
2023/12/15 04:51:16;;;;;;;1.27;0.63;;;5.30;99.90;;;;;;5136286;27;20447;-56
2023/12/15 04:53:43;;;;;;;1.50;0.60;;;5.30;99.90;;;;;;5136112;27;20422;-57
2023/12/15 04:56:10;;;;;;;3.30;0.70;;;5.30;99.90;;;;;;5135772;27;20829;-57
2023/12/15 04:58:39;;;;;;;1.60;0.70;;;5.30;99.90;;;;;;5135751;27;20703;-50
2023/12/15 05:01:09;;;;;;;1.20;0.70;;;5.30;99.90;;;;;;5135434;27;20418;-52
2023/12/15 05:03:37;;;;;;;2.00;0.70;;;5.30;99.90;;;;;;5135595;27;20426;-51
2023/12/15 05:06:04;;;;;;;1.40;0.60;;;5.30;99.90;;;;;;5135619;27;20410;-52
2023/12/15 05:08:31;;;;;;;1.30;0.70;;;5.40;99.90;;;;;;5136024;27;20418;-54
2023/12/15 05:10:58;;;;;;;1.55;0.80;;;5.30;99.90;;;;;;5134287;27;20479;-57
2023/12/15 05:13:25;;;;;;;2.10;0.70;;;5.40;99.90;;;;;;5135603;27;20725;-55
2023/12/15 05:15:54;;;;;;;1.30;0.70;;;5.40;99.90;;;;;;5135236;27;20437;-57
2023/12/15 05:18:21;;;;;;;1.70;0.80;;;5.40;99.90;;;;;;5135058;27;20702;-56
2023/12/15 05:20:48;;;;;;;1.70;0.80;;;5.40;99.90;;;;;;5135228;27;20418;-57
2023/12/15 05:23:15;;;;;;;1.45;0.80;;;5.40;99.90;;;;;;5135405;27;20418;-57
2023/12/15 05:25:42;;;;;;;1.45;0.70;;;5.30;99.90;;;;;;5135356;27;20415;-57
2023/12/15 05:28:09;;;;;;;1.40;0.80;;;5.40;99.90;;;;;;5134102;28;20818;-56
2023/12/15 05:30:36;;;;;;;1.50;0.88;;;5.40;99.90;;;;;;5134935;28;20662;-57
2023/12/15 05:33:04;;;;;;;2.13;0.90;;;5.40;99.90;;;;;;5134856;28;20437;-57
2023/12/15 05:35:32;;;;;;;1.77;0.80;;;5.50;99.90;;;;;;5135322;28;20898;-57
2023/12/15 05:37:59;;;;;;;1.73;0.82;;;5.60;99.90;;;;;;5135330;28;20418;-53
2023/12/15 05:40:26;;;;;;;1.65;0.80;;;5.80;99.90;;;;;;5135020;28;20975;-57
2023/12/15 05:42:53;;;;;;;1.83;0.90;;;5.70;99.90;;;;;;5134969;28;20826;-57
2023/12/15 05:45:20;;;;;;;2.00;0.80;;;5.70;99.90;;;;;;5134275;28;20419;-57
2023/12/15 05:47:48;;;;;;;2.00;0.88;;;5.80;99.90;;;;;;5134655;28;20939;-56
2023/12/15 05:50:17;;;;;;;2.10;0.80;;;5.80;99.90;;;;;;5134448;28;20774;-56
2023/12/15 05:52:44;;;;;;;1.90;0.80;;;5.80;99.90;;;;;;5134115;28;20429;-53
2023/12/15 05:55:11;;;;;;;2.33;0.90;;;5.90;99.90;;;;;;5133170;28;20418;-56
2023/12/15 05:57:38;;;;;;;1.80;0.90;;;5.80;99.90;;;;;;5133868;28;20430;-56
2023/12/15 06:00:08;;;;;;;1.80;0.80;;;5.70;99.90;;;;;;5134228;27;20995;-57
2023/12/15 06:02:35;;;;;;;1.50;0.80;;;5.70;99.90;;;;;;5137835;27;20506;-57
2023/12/15 06:05:03;;;;;;;1.63;0.80;;;5.80;99.90;;;;;;5135901;27;20418;-57
2023/12/15 06:07:33;;;;;;;1.58;0.75;;;5.80;99.90;;;;;;5139028;27;20466;-58
2023/12/15 06:10:01;;;;;;;2.22;0.85;;;5.80;99.90;;;;;;5138606;27;20802;-56
2023/12/15 06:12:28;;;;;;;1.50;0.80;;;5.70;99.90;;;;;;5133212;27;20412;-57
2023/12/15 06:14:55;;;;;;;2.00;0.80;;;5.60;99.90;;;;;;5138591;27;20551;-56
2023/12/15 06:17:22;;;;;;;1.55;0.70;;;5.70;99.90;;;;;;5130256;27;20430;-57
2023/12/15 06:19:49;;;;;;;1.50;0.80;;;5.70;99.90;;;;;;5138558;27;20418;-56
2023/12/15 06:22:16;;;;;;;2.00;0.90;;;5.70;99.90;;;;;;5138105;27;20418;-54
2023/12/15 06:24:44;;;;;;;1.55;0.90;;;5.80;99.90;;;;;;5137413;27;20422;-56
2023/12/15 06:27:11;;;;;;;1.63;0.80;;;5.80;99.90;;;;;;5137117;27;20449;-55
2023/12/15 06:29:39;;;;;;;2.70;0.90;;;5.70;99.90;;;;;;5137000;27;20799;-57
2023/12/15 06:32:08;;;;;;;2.22;0.80;;;5.60;99.90;;;;;;5135940;27;20418;-55
2023/12/15 06:34:35;;;;;;;1.90;0.80;;;5.60;99.90;;;;;;5136756;27;20418;-56
2023/12/15 06:37:02;;;;;;;3.58;1.00;;;5.70;99.90;;;;;;5137070;27;20441;-56
2023/12/15 06:39:30;;;;;;;1.70;0.90;;;5.80;99.90;;;;;;5135798;27;20421;-57
2023/12/15 06:41:58;;;;;;;1.40;0.80;;;5.80;99.90;;;;;;5133957;27;20424;-57
2023/12/15 06:44:25;;;;;;;3.20;1.10;;;5.90;99.90;;;;;;5116386;28;20461;-58
2023/12/15 06:46:52;;;;;;;2.33;0.90;;;5.90;99.90;;;;;;5116419;28;20416;-58
2023/12/15 06:49:21;;;;;;;1.35;0.80;;;5.90;99.90;;;;;;5115340;28;20423;-57
2023/12/15 06:51:48;;;;;;;1.80;0.80;;;6.10;99.90;;;;;;5110038;27;20444;-57
2023/12/15 06:54:15;;;;;;;2.20;0.98;;;6.10;99.90;;;;;;5117554;27;20724;-57
2023/12/15 06:56:42;;;;;;;2.08;0.80;;;6.10;99.90;;;;;;5115723;27;20424;-57
2023/12/15 06:59:11;;;;;;;3.17;0.90;;;6.00;99.90;;;;;;5116428;28;20420;-56
2023/12/15 07:01:38;;;;;;;1.60;0.80;;;5.90;99.90;;;;;;5113807;28;20448;-57
2023/12/15 07:04:05;;;;;;;2.30;0.85;;;5.80;99.90;;;;;;5105873;28;20447;-56
2023/12/15 07:06:32;;;;;;;1.90;0.90;;;5.80;99.90;;;;;;5114284;28;20424;-57
2023/12/15 07:08:59;;;;;;;1.60;0.90;;;5.70;99.90;;;;;;5114443;27;20423;-57
2023/12/15 07:11:27;;;;;;;2.80;1.00;;;5.70;99.90;;;;;;5113160;28;20416;-55
2023/12/15 07:13:54;;;;;;;2.27;0.90;;;5.70;99.90;;;;;;5114309;28;20420;-50
2023/12/15 07:16:22;;;;;;;1.90;0.93;;;5.70;99.90;;;;;;5115568;28;20435;-53
2023/12/15 07:18:49;;;;;;;2.10;0.90;;;5.70;99.90;;;;;;5115220;28;20420;-55
2023/12/15 07:21:16;;;;;;;2.17;0.90;;;5.70;99.90;;;;;;5116090;27;20416;-53
2023/12/15 07:23:44;;;;;;;2.00;0.90;;;5.80;99.90;;;;;;5126535;27;20432;-54
2023/12/15 07:26:11;;;;;;;2.20;1.00;;;5.90;99.90;;;;;;5115163;28;20420;-49
2023/12/15 07:28:39;;;;;;;1.92;0.75;;;5.90;99.90;;;;;;5115424;28;20828;-53
2023/12/15 07:31:06;;;;;;;1.80;0.90;;;6.00;99.90;;;;;;5115327;28;20851;-55
2023/12/15 07:33:34;;;;;;;1.73;0.85;;;6.00;99.90;;;;;;5115062;28;20427;-52
2023/12/15 07:36:01;;;;;;;1.45;0.80;;;6.10;99.90;;;;;;5114968;28;20728;-53
2023/12/15 07:38:28;;;;;;;1.33;0.85;;;6.10;99.90;;;;;;5109943;28;20428;-52
2023/12/15 07:40:59;;;;;;;1.30;0.80;;;6.10;99.90;;;;;;5114415;27;20424;-50
2023/12/15 07:43:26;;;;;;;2.60;0.80;;;6.10;99.90;;;;;;5106076;27;20428;-53
2023/12/15 07:45:53;;;;;;;2.10;0.90;;;6.10;99.90;;;;;;5124195;27;20420;-53
2023/12/15 07:48:20;;;;;;;1.80;1.08;;;6.10;99.90;;;;;;5119722;27;20480;-55
2023/12/15 07:50:49;;;;;;;2.50;0.90;;;6.10;99.90;;;;;;5117476;27;20419;-57
2023/12/15 07:53:16;;;;;;;3.00;0.90;;;5.90;99.90;;;;;;5114936;28;20424;-57
2023/12/15 07:55:43;;;;;;;1.80;0.90;;;5.70;99.90;;;;;;5115028;28;20427;-59
2023/12/15 07:58:10;;;;;;;2.88;0.93;;;5.60;99.90;;;;;;5114612;28;20438;-57
2023/12/15 08:00:37;;;;;;;2.45;1.00;;;5.50;99.90;;;;;;5124337;27;20418;-57
2023/12/15 08:03:04;;;;;;;1.98;0.90;;;5.50;99.90;;;;;;5107518;28;20952;-56
2023/12/15 08:05:32;;;;;;;1.60;0.93;;;5.40;99.90;;;;;;5113111;27;20523;-55
2023/12/15 08:08:02;;;;;;;1.70;1.00;;;5.40;99.90;;;;;;5111629;27;20471;-55
2023/12/15 08:10:30;;;;;;;5.00;1.20;;;5.40;99.90;;;;;;5120716;27;20450;-55
2023/12/15 08:12:57;;;;;;;2.10;0.90;;;5.40;99.90;;;;;;5104248;28;20916;-56
2023/12/15 08:15:24;;;;;;;4.10;1.30;;;5.40;99.90;;;;;;5112862;28;21037;-56
2023/12/15 08:17:52;;;;;;;5.47;1.40;;;5.50;99.90;;;;;;5113966;28;20879;-55
2023/12/15 08:20:19;;;;;;;2.58;1.40;;;5.50;99.90;;;;;;5102926;28;20426;-57
2023/12/15 08:22:46;;;;;;;3.13;1.00;;;5.60;99.90;;;;;;5113568;28;20431;-56
2023/12/15 08:25:15;;;;;;;2.90;1.20;;;5.70;99.90;;;;;;5112970;28;20420;-56
2023/12/15 08:27:42;;;;;;;2.88;1.00;;;5.90;99.90;;;;;;5108043;27;20942;-56
2023/12/15 08:30:10;;;;;;;4.20;1.20;;;5.90;99.90;;;;;;5119981;27;20423;-57
2023/12/15 08:32:37;;;;;;;2.75;1.20;;;5.90;99.90;;;;;;5103339;27;20416;-56
2023/12/15 08:35:05;;;;;;;3.38;1.70;;;5.90;99.90;;;;;;5097292;28;20438;-56
2023/12/15 08:37:32;;;;;;;4.30;1.35;;;5.90;99.90;;;;;;5098125;28;20430;-54
2023/12/15 08:40:00;;;;;;;5.88;1.40;;;6.00;99.90;;;;;;5104073;28;20830;-56
2023/12/15 08:42:28;;;;;;;3.80;1.45;;;5.90;99.90;;;;;;5115728;27;20431;-56
2023/12/15 08:44:55;;;;;;;3.10;1.20;;;5.70;99.90;;;;;;5105270;28;20545;-55
2023/12/15 08:47:22;;;;;;;9.30;1.75;;;5.70;99.90;;;;;;5108241;28;20466;-56
2023/12/15 08:49:49;;;;;;;3.65;1.25;;;5.70;99.90;;;;;;5109190;28;20422;-56
2023/12/15 08:52:16;;;;;;;3.50;1.40;;;5.70;99.90;;;;;;5112329;28;20724;-56
2023/12/15 08:54:43;;;;;;;3.30;1.30;;;5.70;99.90;;;;;;5109849;28;20420;-57
2023/12/15 08:57:10;;;;;;;2.67;1.00;;;6.00;99.90;;;;;;5108059;28;20422;-58
2023/12/15 08:59:40;;;;;;;2.20;1.00;;;6.10;99.90;;;;;;5110201;27;20420;-56
2023/12/15 09:02:08;;;;;;;3.00;1.40;;;6.10;99.90;;;;;;5112836;28;20759;-55
2023/12/15 09:04:36;;;;;;;3.15;1.27;;;6.10;99.90;;;;;;5112744;28;20459;-55
2023/12/15 09:07:03;;;;;;;4.53;1.40;;;6.10;99.90;;;;;;5112334;28;20855;-56
2023/12/15 09:09:30;;;;;;;3.63;1.20;;;6.10;99.90;;;;;;5113230;28;20420;-56
2023/12/15 09:11:57;;;;;;;3.50;1.20;;;6.20;99.90;;;;;;5119197;27;20434;-55
2023/12/15 09:14:24;;;;;;;3.60;1.30;;;6.30;99.90;;;;;;5117499;27;20841;-56
2023/12/15 09:16:54;;;;;;;2.97;1.10;;;6.40;99.90;;;;;;5113464;28;20759;-56
2023/12/15 09:19:21;;;;;;;2.80;1.30;;;6.40;99.90;;;;;;5113818;27;20415;-56
2023/12/15 09:21:48;;;;;;;2.40;1.30;;;6.40;99.90;;;;;;5110161;27;20453;-56
2023/12/15 09:24:17;;;;;;;2.92;1.30;;;6.30;99.90;;;;;;5101952;28;21124;-57
2023/12/15 09:26:44;;;;;;;2.22;1.10;;;6.30;99.90;;;;;;5103386;28;20418;-56
2023/12/15 09:29:12;;;;;;;2.83;1.10;;;6.30;99.90;;;;;;5107913;28;20430;-54
2023/12/15 09:31:39;;;;;;;3.40;1.20;;;6.30;99.90;;;;;;5100908;28;20431;-57
2023/12/15 09:34:08;;;;;;;2.10;1.20;;;6.30;99.90;;;;;;5113231;28;20431;-58
2023/12/15 09:36:35;;;;;;;2.90;1.20;;;6.50;99.90;;;;;;5108826;28;20515;-56
2023/12/15 09:39:03;;;;;;;1.90;1.17;;;6.50;99.90;;;;;;5113957;28;20408;-57
2023/12/15 09:41:32;;;;;;;4.05;1.10;;;6.60;99.90;;;;;;5120498;27;20851;-56
2023/12/15 09:43:59;;;;;;;2.90;1.20;;;6.70;99.90;;;;;;5117643;28;20870;-58
2023/12/15 09:46:27;;;;;;;2.00;1.10;;;6.70;99.90;;;;;;5105085;27;20877;-58
2023/12/15 09:48:55;;;;;;;4.28;1.40;;;6.80;99.90;;;;;;5115510;27;20724;-58
2023/12/15 09:51:25;;;;;;;3.38;1.50;;;6.80;99.90;;;;;;5112475;28;20414;-56
2023/12/15 09:53:53;;;;;;;3.30;1.40;;;6.80;99.90;;;;;;5110645;28;20424;-58
2023/12/15 09:56:20;;;;;;;2.50;1.30;;;6.90;99.90;;;;;;5109056;28;20739;-58
2023/12/15 09:58:48;;;;;;;2.47;1.35;;;6.90;99.90;;;;;;5132865;27;20873;-56
2023/12/15 10:01:15;;;;;;;2.50;1.10;;;7.00;99.90;;;;;;5115385;28;20424;-57
2023/12/15 10:03:42;;;;;;;2.65;1.23;;;6.90;99.90;;;;;;5105417;28;20859;-57
2023/12/15 10:06:09;;;;;;;3.05;1.30;;;6.80;99.90;;;;;;5128658;27;20950;-56
2023/12/15 10:08:42;;;;;;;2.35;1.40;;;6.80;99.90;;;;;;5120381;27;20427;-58
2023/12/15 10:11:10;;;;;;;4.00;1.50;;;6.80;99.90;;;;;;5109828;28;20422;-55
2023/12/15 10:13:40;;;;;;;4.13;1.70;;;7.00;99.90;;;;;;5118807;27;20422;-58
2023/12/15 10:16:08;;;;;;;2.60;1.20;;;7.10;99.90;;;;;;5113458;28;20429;-57
2023/12/15 10:18:36;;;;;;;2.28;1.30;;;7.10;99.90;;;;;;5111293;28;20504;-56
2023/12/15 10:21:05;;;;;;;2.70;1.30;;;7.10;99.90;;;;;;5114687;28;20440;-57
2023/12/15 10:23:34;;;;;;;2.47;1.20;;;7.20;99.90;;;;;;5111021;28;20467;-57
2023/12/15 10:26:04;;;;;;;3.00;1.40;;;7.10;99.90;;;;;;5114219;28;20424;-57
2023/12/15 10:28:36;;;;;;;2.63;1.20;;;7.10;99.90;;;;;;5116792;27;20723;-55
2023/12/15 10:31:04;;;;;;;2.22;1.00;;;7.40;99.90;;;;;;5112168;28;20420;-57
2023/12/15 10:33:31;;;;;;;2.50;1.20;;;7.50;99.90;;;;;;5115749;28;20427;-55
2023/12/15 10:36:01;;;;;;;2.40;1.10;;;7.60;99.90;;;;;;5115344;28;20435;-57
2023/12/15 10:38:29;;;;;;;1.90;1.10;;;7.70;99.90;;;;;;5105100;28;20503;-57
2023/12/15 10:40:57;;;;;;;3.10;1.10;;;7.80;99.90;;;;;;5120129;27;20658;-57
2023/12/15 10:43:27;;;;;;;2.60;1.00;;;8.10;99.90;;;;;;5131368;27;20415;-62
2023/12/15 10:45:55;;;;;;;2.30;1.10;;;8.00;93.10;;;;;;5135885;27;20725;-57
2023/12/15 10:48:22;;;;;;;2.83;1.10;;;8.00;99.90;;;;;;5135600;27;20407;-58
2023/12/15 10:50:52;;;;;;;2.60;1.00;;;8.00;93.90;;;;;;5152815;27;20409;-57
2023/12/15 10:53:20;;;;;;;2.60;1.00;;;8.00;99.90;;;;;;5136439;27;20414;-59
2023/12/15 10:55:48;;;;;;;2.10;1.10;;;8.10;99.90;;;;;;5127426;27;20432;-58
2023/12/15 10:58:15;;;;;;;3.00;1.33;;;8.20;93.10;;;;;;5129623;27;20445;-57
2023/12/15 11:00:43;;;;;;;3.08;1.08;;;8.10;90.50;;;;;;5126876;27;21823;-58
2023/12/15 11:03:13;;;;;;;1.50;0.98;;;8.20;99.90;;;;;;5136782;27;20466;-58
2023/12/15 11:05:40;;;;;;;2.50;0.90;;;8.10;84.40;;;;;;5141550;27;20416;-58
2023/12/15 11:08:08;;;;;;;2.17;1.10;;;8.00;99.90;;;;;;5142697;27;20445;-58
2023/12/15 11:10:36;;;;;;;2.17;0.90;;;8.00;87.30;;;;;;5125885;27;20990;-58
2023/12/15 11:13:05;;;;;;;1.30;0.90;;;8.00;90.50;;;;;;5132173;27;20458;-59
2023/12/15 11:15:32;;;;;;;1.50;0.90;;;8.00;95.20;;;;;;5122030;27;20414;-51
2023/12/15 11:18:01;;;;;;;1.48;0.90;;;8.30;99.90;;;;;;5120676;27;20429;-52
2023/12/15 11:20:41;;;;;;;2.90;1.10;;;8.40;79.70;;;;;;5137031;27;20422;-49
2023/12/15 11:23:10;;;;;;;1.60;0.90;;;8.40;56.50;;;;;;5119862;27;20415;-51
2023/12/15 11:25:38;;;;;;;2.63;0.90;;;8.40;59.40;;;;;;5133200;27;20437;-52
2023/12/15 11:28:09;;;;;;;2.60;0.90;;;8.30;50.40;;;;;;5132692;27;20433;-52
2023/12/15 11:30:37;;;;;;;1.33;0.90;;;8.30;77.30;;;;;;5118730;27;20443;-53
2023/12/15 11:33:40;;;;;;;1.92;0.80;;;8.10;64.60;;;;;;5123515;27;20877;-50
2023/12/15 11:36:12;;;;;;;2.00;0.90;;;8.10;78.60;;;;;;5127655;27;20473;-53
2023/12/15 11:38:39;;;;;;;1.33;0.80;;;8.00;75.30;;;;;;5131279;27;20423;-53
2023/12/15 11:41:07;;;;;;;1.30;0.80;;;8.10;78.00;;;;;;5118724;27;20542;-51
2023/12/15 11:43:36;;;;;;;1.70;0.90;;;8.40;78.80;;;;;;5134152;27;20868;-52
2023/12/15 11:46:04;;;;;;;1.60;0.70;;;8.30;43.10;;;;;;5132633;27;20522;-52
2023/12/15 11:48:33;;;;;;;1.50;0.90;;;8.30;44.00;;;;;;5126943;27;20431;-53
2023/12/15 11:51:01;;;;;;;1.70;0.80;;;8.20;54.40;;;;;;5132462;27;20419;-49
2023/12/15 11:53:32;;;;;;;1.60;0.80;;;8.20;60.30;;;;;;5132609;27;20434;-53
2023/12/15 11:56:01;;;;;;;1.38;0.80;;;8.20;92.70;;;;;;5133016;27;20799;-56
2023/12/15 11:58:28;;;;;;;1.35;0.73;;;8.40;74.30;;;;;;5122381;27;20432;-55
2023/12/15 12:00:55;;;;;;;1.20;0.70;;;8.40;45.70;;;;;;5132003;27;20446;-54
2023/12/15 12:03:25;;;;;;;1.58;0.85;;;8.50;58.20;;;;;;5124316;27;20845;-55
2023/12/15 12:05:54;;;;;;;1.20;0.80;;;8.60;59.20;;;;;;5125540;27;20439;-54
2023/12/15 12:08:22;;;;;;;1.30;0.80;;;8.50;14.80;;;;;;5126928;27;20481;-54
2023/12/15 12:10:54;;;;;;;2.00;0.70;;;8.50;49.70;;;;;;5130519;27;20437;-55
2023/12/15 12:13:22;;;;;;;1.17;0.70;;;8.50;49.80;;;;;;5122272;27;20443;-53
2023/12/15 12:15:51;;;;;;;2.60;0.77;;;8.40;35.60;;;;;;5119979;27;20483;-52
2023/12/15 12:18:19;;;;;;;1.27;0.70;;;8.40;35.40;;;;;;5129125;27;21141;-54
2023/12/15 12:20:47;;;;;;;1.20;0.80;;;8.50;57.00;;;;;;5128756;27;20859;-55
2023/12/15 12:23:14;;;;;;;1.55;0.70;;;8.60;37.40;;;;;;5127393;27;20448;-54
2023/12/15 12:25:47;;;;;;;1.30;0.70;;;8.60;74.60;;;;;;5123170;27;20434;-55
2023/12/15 12:28:16;;;;;;;1.60;0.85;;;8.60;52.70;;;;;;5131104;27;20724;-55
2023/12/15 12:30:43;;;;;;;2.20;0.80;;;8.70;54.10;;;;;;5117680;27;20439;-54
2023/12/15 12:33:11;;;;;;;1.20;0.80;;;8.70;51.50;;;;;;5138059;27;20478;-55
2023/12/15 12:35:39;;;;;;;1.10;0.63;;;8.60;19.90;;;;;;5127549;27;20435;-51
2023/12/15 12:38:06;;;;;;;1.10;0.70;;;8.50;38.50;;;;;;5128151;27;20945;-51
2023/12/15 12:40:34;;;;;;;1.70;0.70;;;8.50;43.00;;;;;;5129692;27;21022;-53
2023/12/15 12:43:01;;;;;;;1.70;0.70;;;8.40;31.30;;;;;;5126114;27;20441;-55
2023/12/15 12:45:31;;;;;;;1.10;0.60;;;8.20;53.60;;;;;;5127818;27;20431;-52
2023/12/15 12:47:58;;;;;;;1.90;0.60;;;8.20;81.70;;;;;;5125678;27;20503;-53
2023/12/15 12:50:27;;;;;;;1.13;0.60;;;8.30;63.90;;;;;;5129967;27;20746;-54
2023/12/15 12:52:55;;;;;;;1.00;0.60;;;8.30;69.60;;;;;;5124265;27;20507;-53
2023/12/15 12:55:23;;;;;;;1.20;0.60;;;8.20;71.20;;;;;;5126215;27;20483;-54
2023/12/15 12:57:50;;;;;;;1.77;0.70;;;8.30;87.30;;;;;;5132229;27;21135;-54
2023/12/15 13:00:18;;;;;;;1.10;0.70;;;8.40;61.50;;;;;;5130198;27;20452;-54